sensor_id;sensor_type;location;lat;lon;timestamp;P1;durP1;ratioP1;P2;durP2;ratioP2
27983;SDS011;15317;50.360;8.726;2024-01-27T00:01:29;7.37;;;2.80;;
27983;SDS011;15317;50.360;8.726;2024-01-27T00:06:32;8.73;;;2.57;;
27983;SDS011;15317;50.360;8.726;2024-01-27T00:11:37;7.90;;;2.90;;
27983;SDS011;15317;50.360;8.726;2024-01-27T00:16:40;7.20;;;2.73;;
27983;SDS011;15317;50.360;8.726;2024-01-27T00:21:43;6.67;;;2.83;;
27983;SDS011;15317;50.360;8.726;2024-01-27T00:26:48;7.00;;;3.23;;
27983;SDS011;15317;50.360;8.726;2024-01-27T00:31:51;10.17;;;3.10;;
27983;SDS011;15317;50.360;8.726;2024-01-27T00:36:56;7.47;;;2.80;;
27983;SDS011;15317;50.360;8.726;2024-01-27T00:42:01;8.60;;;3.00;;
27983;SDS011;15317;50.360;8.726;2024-01-27T00:47:04;7.13;;;3.03;;
27983;SDS011;15317;50.360;8.726;2024-01-27T00:52:07;6.90;;;2.70;;
27983;SDS011;15317;50.360;8.726;2024-01-27T00:57:12;9.73;;;3.07;;
27983;SDS011;15317;50.360;8.726;2024-01-27T01:02:15;9.93;;;2.90;;
27983;SDS011;15317;50.360;8.726;2024-01-27T01:07:19;8.53;;;2.60;;
27983;SDS011;15317;50.360;8.726;2024-01-27T01:12:23;6.47;;;2.50;;
27983;SDS011;15317;50.360;8.726;2024-01-27T01:17:27;7.60;;;2.80;;
27983;SDS011;15317;50.360;8.726;2024-01-27T01:22:30;10.57;;;2.97;;
27983;SDS011;15317;50.360;8.726;2024-01-27T01:27:35;7.77;;;2.73;;
27983;SDS011;15317;50.360;8.726;2024-01-27T01:32:38;8.00;;;2.90;;
27983;SDS011;15317;50.360;8.726;2024-01-27T01:37:41;6.80;;;2.70;;
27983;SDS011;15317;50.360;8.726;2024-01-27T01:42:51;7.40;;;2.97;;
27983;SDS011;15317;50.360;8.726;2024-01-27T01:47:54;8.40;;;3.00;;
27983;SDS011;15317;50.360;8.726;2024-01-27T01:52:58;14.10;;;3.23;;
27983;SDS011;15317;50.360;8.726;2024-01-27T01:58:02;10.90;;;2.80;;
27983;SDS011;15317;50.360;8.726;2024-01-27T02:03:09;10.73;;;3.23;;
27983;SDS011;15317;50.360;8.726;2024-01-27T02:08:13;6.87;;;2.50;;
27983;SDS011;15317;50.360;8.726;2024-01-27T02:13:18;14.97;;;2.90;;
27983;SDS011;15317;50.360;8.726;2024-01-27T02:18:23;14.67;;;3.00;;
27983;SDS011;15317;50.360;8.726;2024-01-27T02:23:26;6.83;;;2.50;;
27983;SDS011;15317;50.360;8.726;2024-01-27T02:28:32;9.70;;;2.97;;
27983;SDS011;15317;50.360;8.726;2024-01-27T02:33:36;8.50;;;2.73;;
27983;SDS011;15317;50.360;8.726;2024-01-27T02:38:40;9.83;;;2.70;;
27983;SDS011;15317;50.360;8.726;2024-01-27T02:43:47;11.40;;;3.00;;
27983;SDS011;15317;50.360;8.726;2024-01-27T02:48:50;6.27;;;2.60;;
27983;SDS011;15317;50.360;8.726;2024-01-27T02:53:53;7.90;;;2.80;;
27983;SDS011;15317;50.360;8.726;2024-01-27T02:58:57;7.10;;;2.43;;
27983;SDS011;15317;50.360;8.726;2024-01-27T03:04:01;11.67;;;2.60;;
27983;SDS011;15317;50.360;8.726;2024-01-27T03:09:04;6.40;;;2.60;;
27983;SDS011;15317;50.360;8.726;2024-01-27T03:14:09;7.80;;;2.80;;
27983;SDS011;15317;50.360;8.726;2024-01-27T03:19:13;11.77;;;2.80;;
27983;SDS011;15317;50.360;8.726;2024-01-27T03:24:16;7.77;;;3.13;;
27983;SDS011;15317;50.360;8.726;2024-01-27T03:29:21;8.53;;;2.37;;
27983;SDS011;15317;50.360;8.726;2024-01-27T03:34:25;13.97;;;3.00;;
27983;SDS011;15317;50.360;8.726;2024-01-27T03:39:29;13.57;;;2.70;;
27983;SDS011;15317;50.360;8.726;2024-01-27T03:44:34;9.43;;;2.93;;
27983;SDS011;15317;50.360;8.726;2024-01-27T03:49:37;8.93;;;2.40;;
27983;SDS011;15317;50.360;8.726;2024-01-27T03:54:40;8.87;;;2.33;;
27983;SDS011;15317;50.360;8.726;2024-01-27T03:59:45;10.97;;;2.43;;
27983;SDS011;15317;50.360;8.726;2024-01-27T04:04:48;10.30;;;2.60;;
27983;SDS011;15317;50.360;8.726;2024-01-27T04:09:52;10.17;;;2.47;;
27983;SDS011;15317;50.360;8.726;2024-01-27T04:14:58;11.03;;;2.47;;
27983;SDS011;15317;50.360;8.726;2024-01-27T04:20:02;15.10;;;4.07;;
27983;SDS011;15317;50.360;8.726;2024-01-27T04:25:06;10.97;;;2.73;;
27983;SDS011;15317;50.360;8.726;2024-01-27T04:30:11;10.30;;;3.07;;
27983;SDS011;15317;50.360;8.726;2024-01-27T04:35:15;5.30;;;2.10;;
27983;SDS011;15317;50.360;8.726;2024-01-27T04:40:19;7.47;;;2.33;;
27983;SDS011;15317;50.360;8.726;2024-01-27T04:45:23;11.50;;;2.57;;
27983;SDS011;15317;50.360;8.726;2024-01-27T04:50:26;6.33;;;2.20;;
27983;SDS011;15317;50.360;8.726;2024-01-27T04:55:29;7.80;;;2.57;;
27983;SDS011;15317;50.360;8.726;2024-01-27T05:00:34;10.90;;;2.80;;
27983;SDS011;15317;50.360;8.726;2024-01-27T05:05:40;11.83;;;2.60;;
27983;SDS011;15317;50.360;8.726;2024-01-27T05:10:44;8.80;;;2.40;;
27983;SDS011;15317;50.360;8.726;2024-01-27T05:15:48;9.77;;;2.60;;
27983;SDS011;15317;50.360;8.726;2024-01-27T05:20:51;6.33;;;2.00;;
27983;SDS011;15317;50.360;8.726;2024-01-27T05:25:54;8.10;;;2.17;;
27983;SDS011;15317;50.360;8.726;2024-01-27T05:30:59;14.27;;;2.70;;
27983;SDS011;15317;50.360;8.726;2024-01-27T05:36:02;10.47;;;3.50;;
27983;SDS011;15317;50.360;8.726;2024-01-27T05:41:06;13.87;;;2.63;;
27983;SDS011;15317;50.360;8.726;2024-01-27T05:46:10;14.03;;;2.43;;
27983;SDS011;15317;50.360;8.726;2024-01-27T05:51:14;7.67;;;2.50;;
27983;SDS011;15317;50.360;8.726;2024-01-27T05:56:17;9.17;;;2.20;;
27983;SDS011;15317;50.360;8.726;2024-01-27T06:01:23;8.40;;;2.37;;
27983;SDS011;15317;50.360;8.726;2024-01-27T06:06:27;14.13;;;3.00;;
27983;SDS011;15317;50.360;8.726;2024-01-27T06:11:30;7.33;;;1.93;;
27983;SDS011;15317;50.360;8.726;2024-01-27T06:16:34;12.80;;;2.60;;
27983;SDS011;15317;50.360;8.726;2024-01-27T06:21:38;9.97;;;2.47;;
27983;SDS011;15317;50.360;8.726;2024-01-27T06:26:41;6.97;;;2.00;;
27983;SDS011;15317;50.360;8.726;2024-01-27T06:31:45;11.40;;;2.43;;
27983;SDS011;15317;50.360;8.726;2024-01-27T06:36:49;9.37;;;2.13;;
27983;SDS011;15317;50.360;8.726;2024-01-27T06:41:52;11.03;;;2.37;;
27983;SDS011;15317;50.360;8.726;2024-01-27T06:46:57;6.50;;;2.20;;
27983;SDS011;15317;50.360;8.726;2024-01-27T06:52:00;8.53;;;2.47;;
27983;SDS011;15317;50.360;8.726;2024-01-27T06:57:03;12.07;;;2.67;;
27983;SDS011;15317;50.360;8.726;2024-01-27T07:02:08;8.80;;;2.80;;
27983;SDS011;15317;50.360;8.726;2024-01-27T07:07:15;7.40;;;2.33;;
27983;SDS011;15317;50.360;8.726;2024-01-27T07:12:19;12.00;;;3.00;;
27983;SDS011;15317;50.360;8.726;2024-01-27T07:17:23;8.67;;;2.50;;
27983;SDS011;15317;50.360;8.726;2024-01-27T07:22:26;8.63;;;2.47;;
27983;SDS011;15317;50.360;8.726;2024-01-27T07:27:29;8.33;;;2.07;;
27983;SDS011;15317;50.360;8.726;2024-01-27T07:32:34;7.47;;;3.43;;
27983;SDS011;15317;50.360;8.726;2024-01-27T07:37:37;10.70;;;7.30;;
27983;SDS011;15317;50.360;8.726;2024-01-27T07:42:40;15.73;;;7.13;;
27983;SDS011;15317;50.360;8.726;2024-01-27T07:47:45;12.27;;;6.30;;
27983;SDS011;15317;50.360;8.726;2024-01-27T07:52:48;11.10;;;6.37;;
27983;SDS011;15317;50.360;8.726;2024-01-27T07:57:51;18.03;;;6.93;;
27983;SDS011;15317;50.360;8.726;2024-01-27T08:02:56;12.23;;;6.70;;
27983;SDS011;15317;50.360;8.726;2024-01-27T08:07:59;21.30;;;7.93;;
27983;SDS011;15317;50.360;8.726;2024-01-27T08:13:02;16.20;;;6.43;;
27983;SDS011;15317;50.360;8.726;2024-01-27T08:18:07;15.20;;;6.10;;
27983;SDS011;15317;50.360;8.726;2024-01-27T08:23:11;12.47;;;6.00;;
27983;SDS011;15317;50.360;8.726;2024-01-27T08:28:14;12.97;;;6.03;;
27983;SDS011;15317;50.360;8.726;2024-01-27T08:33:18;11.97;;;6.17;;
27983;SDS011;15317;50.360;8.726;2024-01-27T08:38:22;12.33;;;5.47;;
27983;SDS011;15317;50.360;8.726;2024-01-27T08:43:25;15.57;;;6.57;;
27983;SDS011;15317;50.360;8.726;2024-01-27T08:48:30;13.73;;;6.97;;
27983;SDS011;15317;50.360;8.726;2024-01-27T08:53:33;15.87;;;7.43;;
27983;SDS011;15317;50.360;8.726;2024-01-27T08:58:36;13.63;;;7.10;;
27983;SDS011;15317;50.360;8.726;2024-01-27T09:03:41;15.77;;;6.90;;
27983;SDS011;15317;50.360;8.726;2024-01-27T09:08:45;13.40;;;7.03;;
27983;SDS011;15317;50.360;8.726;2024-01-27T09:13:48;8.90;;;6.17;;
27983;SDS011;15317;50.360;8.726;2024-01-27T09:18:54;11.57;;;5.60;;
27983;SDS011;15317;50.360;8.726;2024-01-27T09:23:58;10.80;;;5.93;;
27983;SDS011;15317;50.360;8.726;2024-01-27T09:29:03;11.00;;;5.77;;
27983;SDS011;15317;50.360;8.726;2024-01-27T09:34:07;12.97;;;5.97;;
27983;SDS011;15317;50.360;8.726;2024-01-27T09:39:11;12.73;;;6.27;;
27983;SDS011;15317;50.360;8.726;2024-01-27T09:44:14;10.63;;;5.87;;
27983;SDS011;15317;50.360;8.726;2024-01-27T09:49:22;11.47;;;6.30;;
27983;SDS011;15317;50.360;8.726;2024-01-27T09:54:27;10.60;;;6.03;;
27983;SDS011;15317;50.360;8.726;2024-01-27T09:59:30;10.87;;;5.97;;
27983;SDS011;15317;50.360;8.726;2024-01-27T10:04:37;10.10;;;5.97;;
27983;SDS011;15317;50.360;8.726;2024-01-27T10:09:41;10.77;;;5.77;;
27983;SDS011;15317;50.360;8.726;2024-01-27T10:14:45;12.00;;;5.93;;
27983;SDS011;15317;50.360;8.726;2024-01-27T10:19:59;9.43;;;5.37;;
27983;SDS011;15317;50.360;8.726;2024-01-27T10:25:05;10.77;;;4.93;;
27983;SDS011;15317;50.360;8.726;2024-01-27T10:30:14;9.30;;;5.60;;
27983;SDS011;15317;50.360;8.726;2024-01-27T10:35:21;10.93;;;5.37;;
27983;SDS011;15317;50.360;8.726;2024-01-27T10:40:24;10.80;;;6.43;;
27983;SDS011;15317;50.360;8.726;2024-01-27T10:45:29;12.53;;;7.07;;
27983;SDS011;15317;50.360;8.726;2024-01-27T10:50:39;10.67;;;6.00;;
27983;SDS011;15317;50.360;8.726;2024-01-27T10:55:46;12.87;;;5.73;;
27983;SDS011;15317;50.360;8.726;2024-01-27T11:00:51;10.43;;;5.30;;
27983;SDS011;15317;50.360;8.726;2024-01-27T11:05:57;9.50;;;4.27;;
27983;SDS011;15317;50.360;8.726;2024-01-27T11:11:02;10.37;;;4.50;;
27983;SDS011;15317;50.360;8.726;2024-01-27T11:16:06;13.13;;;5.90;;
27983;SDS011;15317;50.360;8.726;2024-01-27T11:21:20;10.17;;;4.93;;
27983;SDS011;15317;50.360;8.726;2024-01-27T11:26:23;14.17;;;5.30;;
27983;SDS011;15317;50.360;8.726;2024-01-27T11:31:27;10.80;;;5.07;;
27983;SDS011;15317;50.360;8.726;2024-01-27T11:36:32;12.10;;;5.50;;
27983;SDS011;15317;50.360;8.726;2024-01-27T11:41:36;9.60;;;5.77;;
27983;SDS011;15317;50.360;8.726;2024-01-27T11:46:41;10.77;;;5.30;;
27983;SDS011;15317;50.360;8.726;2024-01-27T11:51:45;11.70;;;5.97;;
27983;SDS011;15317;50.360;8.726;2024-01-27T11:56:48;11.57;;;6.80;;
27983;SDS011;15317;50.360;8.726;2024-01-27T12:01:51;11.40;;;7.17;;
27983;SDS011;15317;50.360;8.726;2024-01-27T12:06:56;12.93;;;6.63;;
27983;SDS011;15317;50.360;8.726;2024-01-27T12:11:59;12.53;;;7.10;;
27983;SDS011;15317;50.360;8.726;2024-01-27T12:17:02;11.47;;;6.33;;
27983;SDS011;15317;50.360;8.726;2024-01-27T12:22:20;12.77;;;6.73;;
27983;SDS011;15317;50.360;8.726;2024-01-27T12:27:25;12.10;;;7.30;;
27983;SDS011;15317;50.360;8.726;2024-01-27T12:32:28;10.37;;;6.13;;
27983;SDS011;15317;50.360;8.726;2024-01-27T12:37:32;11.70;;;5.33;;
27983;SDS011;15317;50.360;8.726;2024-01-27T12:42:37;11.00;;;5.93;;
27983;SDS011;15317;50.360;8.726;2024-01-27T12:47:40;11.80;;;6.13;;
27983;SDS011;15317;50.360;8.726;2024-01-27T12:52:44;10.07;;;6.17;;
27983;SDS011;15317;50.360;8.726;2024-01-27T12:57:48;10.93;;;6.37;;
27983;SDS011;15317;50.360;8.726;2024-01-27T13:02:51;9.10;;;5.30;;
27983;SDS011;15317;50.360;8.726;2024-01-27T13:07:56;11.10;;;5.20;;
27983;SDS011;15317;50.360;8.726;2024-01-27T13:12:59;9.83;;;5.03;;
27983;SDS011;15317;50.360;8.726;2024-01-27T13:18:02;9.40;;;5.00;;
27983;SDS011;15317;50.360;8.726;2024-01-27T13:23:07;11.03;;;4.93;;
27983;SDS011;15317;50.360;8.726;2024-01-27T13:28:11;9.67;;;4.47;;
27983;SDS011;15317;50.360;8.726;2024-01-27T13:33:14;8.93;;;4.47;;
27983;SDS011;15317;50.360;8.726;2024-01-27T13:38:20;9.40;;;4.37;;
27983;SDS011;15317;50.360;8.726;2024-01-27T13:43:25;9.83;;;4.17;;
27983;SDS011;15317;50.360;8.726;2024-01-27T13:48:28;10.67;;;4.20;;
27983;SDS011;15317;50.360;8.726;2024-01-27T13:53:33;9.27;;;3.47;;
27983;SDS011;15317;50.360;8.726;2024-01-27T13:58:48;8.43;;;3.43;;
27983;SDS011;15317;50.360;8.726;2024-01-27T14:03:51;13.43;;;3.70;;
27983;SDS011;15317;50.360;8.726;2024-01-27T14:08:56;9.00;;;3.37;;
27983;SDS011;15317;50.360;8.726;2024-01-27T14:13:59;9.17;;;3.03;;
27983;SDS011;15317;50.360;8.726;2024-01-27T14:19:02;10.10;;;3.40;;
27983;SDS011;15317;50.360;8.726;2024-01-27T14:24:07;13.50;;;3.73;;
27983;SDS011;15317;50.360;8.726;2024-01-27T14:29:10;8.70;;;3.30;;
27983;SDS011;15317;50.360;8.726;2024-01-27T14:34:14;10.73;;;3.50;;
27983;SDS011;15317;50.360;8.726;2024-01-27T14:39:18;6.67;;;2.63;;
27983;SDS011;15317;50.360;8.726;2024-01-27T14:44:22;9.77;;;2.80;;
27983;SDS011;15317;50.360;8.726;2024-01-27T14:49:25;10.60;;;3.83;;
27983;SDS011;15317;50.360;8.726;2024-01-27T14:54:31;8.03;;;2.23;;
27983;SDS011;15317;50.360;8.726;2024-01-27T14:59:35;9.57;;;2.33;;
27983;SDS011;15317;50.360;8.726;2024-01-27T15:04:40;7.20;;;2.60;;
27983;SDS011;15317;50.360;8.726;2024-01-27T15:09:45;7.03;;;2.60;;
27983;SDS011;15317;50.360;8.726;2024-01-27T15:14:48;5.93;;;2.27;;
27983;SDS011;15317;50.360;8.726;2024-01-27T15:19:51;7.73;;;2.50;;
27983;SDS011;15317;50.360;8.726;2024-01-27T15:24:56;8.47;;;2.43;;
27983;SDS011;15317;50.360;8.726;2024-01-27T15:30:00;7.43;;;2.73;;
27983;SDS011;15317;50.360;8.726;2024-01-27T15:35:04;6.33;;;2.63;;
27983;SDS011;15317;50.360;8.726;2024-01-27T15:40:10;9.13;;;2.67;;
27983;SDS011;15317;50.360;8.726;2024-01-27T15:45:14;8.97;;;2.90;;
27983;SDS011;15317;50.360;8.726;2024-01-27T15:50:18;8.47;;;2.40;;
27983;SDS011;15317;50.360;8.726;2024-01-27T15:55:24;8.23;;;2.60;;
27983;SDS011;15317;50.360;8.726;2024-01-27T16:00:29;7.80;;;2.93;;
27983;SDS011;15317;50.360;8.726;2024-01-27T16:05:32;5.60;;;3.30;;
27983;SDS011;15317;50.360;8.726;2024-01-27T16:10:37;9.73;;;3.07;;
27983;SDS011;15317;50.360;8.726;2024-01-27T16:15:41;7.50;;;3.00;;
27983;SDS011;15317;50.360;8.726;2024-01-27T16:20:45;7.63;;;2.90;;
27983;SDS011;15317;50.360;8.726;2024-01-27T16:25:52;8.53;;;2.87;;
27983;SDS011;15317;50.360;8.726;2024-01-27T16:30:55;7.00;;;2.83;;
27983;SDS011;15317;50.360;8.726;2024-01-27T16:35:59;8.30;;;3.20;;
27983;SDS011;15317;50.360;8.726;2024-01-27T16:41:04;9.10;;;2.83;;
27983;SDS011;15317;50.360;8.726;2024-01-27T16:46:07;7.57;;;2.60;;
27983;SDS011;15317;50.360;8.726;2024-01-27T16:51:10;6.67;;;3.00;;
27983;SDS011;15317;50.360;8.726;2024-01-27T16:56:15;7.93;;;2.57;;
27983;SDS011;15317;50.360;8.726;2024-01-27T17:01:19;7.30;;;3.10;;
27983;SDS011;15317;50.360;8.726;2024-01-27T17:06:22;8.30;;;3.20;;
27983;SDS011;15317;50.360;8.726;2024-01-27T17:11:27;9.13;;;3.60;;
27983;SDS011;15317;50.360;8.726;2024-01-27T17:16:30;8.70;;;3.50;;
27983;SDS011;15317;50.360;8.726;2024-01-27T17:21:33;27.43;;;18.30;;
27983;SDS011;15317;50.360;8.726;2024-01-27T17:26:37;34.80;;;23.43;;
27983;SDS011;15317;50.360;8.726;2024-01-27T17:31:41;19.90;;;13.40;;
27983;SDS011;15317;50.360;8.726;2024-01-27T17:36:44;11.17;;;8.30;;
27983;SDS011;15317;50.360;8.726;2024-01-27T17:41:48;15.67;;;9.33;;
27983;SDS011;15317;50.360;8.726;2024-01-27T17:46:51;6.87;;;5.27;;
27983;SDS011;15317;50.360;8.726;2024-01-27T17:51:55;7.03;;;4.20;;
27983;SDS011;15317;50.360;8.726;2024-01-27T17:56:59;5.47;;;3.43;;
27983;SDS011;15317;50.360;8.726;2024-01-27T18:02:06;6.77;;;3.23;;
27983;SDS011;15317;50.360;8.726;2024-01-27T18:07:09;7.87;;;3.40;;
27983;SDS011;15317;50.360;8.726;2024-01-27T18:12:14;10.60;;;3.73;;
27983;SDS011;15317;50.360;8.726;2024-01-27T18:17:17;6.20;;;2.80;;
27983;SDS011;15317;50.360;8.726;2024-01-27T18:22:20;9.57;;;3.57;;
27983;SDS011;15317;50.360;8.726;2024-01-27T18:27:26;7.87;;;4.90;;
27983;SDS011;15317;50.360;8.726;2024-01-27T18:32:30;7.87;;;3.57;;
27983;SDS011;15317;50.360;8.726;2024-01-27T18:37:33;11.30;;;5.83;;
27983;SDS011;15317;50.360;8.726;2024-01-27T18:42:39;15.07;;;7.00;;
27983;SDS011;15317;50.360;8.726;2024-01-27T18:47:42;11.60;;;5.50;;
27983;SDS011;15317;50.360;8.726;2024-01-27T18:52:46;11.93;;;6.17;;
27983;SDS011;15317;50.360;8.726;2024-01-27T18:57:56;15.47;;;7.73;;
27983;SDS011;15317;50.360;8.726;2024-01-27T19:02:59;12.70;;;7.00;;
27983;SDS011;15317;50.360;8.726;2024-01-27T19:08:02;15.47;;;6.73;;
27983;SDS011;15317;50.360;8.726;2024-01-27T19:13:07;13.53;;;7.37;;
27983;SDS011;15317;50.360;8.726;2024-01-27T19:18:10;8.23;;;4.27;;
27983;SDS011;15317;50.360;8.726;2024-01-27T19:23:14;9.97;;;4.20;;
27983;SDS011;15317;50.360;8.726;2024-01-27T19:28:18;11.27;;;5.47;;
27983;SDS011;15317;50.360;8.726;2024-01-27T19:33:21;12.27;;;4.67;;
27983;SDS011;15317;50.360;8.726;2024-01-27T19:38:25;7.43;;;3.67;;
27983;SDS011;15317;50.360;8.726;2024-01-27T19:43:29;11.50;;;6.00;;
27983;SDS011;15317;50.360;8.726;2024-01-27T19:48:33;12.20;;;6.70;;
27983;SDS011;15317;50.360;8.726;2024-01-27T19:53:36;12.67;;;7.30;;
27983;SDS011;15317;50.360;8.726;2024-01-27T19:58:41;10.03;;;4.40;;
27983;SDS011;15317;50.360;8.726;2024-01-27T20:03:44;11.27;;;4.50;;
27983;SDS011;15317;50.360;8.726;2024-01-27T20:08:49;12.93;;;5.27;;
27983;SDS011;15317;50.360;8.726;2024-01-27T20:13:54;8.53;;;5.00;;
27983;SDS011;15317;50.360;8.726;2024-01-27T20:18:58;10.63;;;5.40;;
27983;SDS011;15317;50.360;8.726;2024-01-27T20:24:01;11.53;;;5.50;;
27983;SDS011;15317;50.360;8.726;2024-01-27T20:29:06;11.90;;;6.50;;
27983;SDS011;15317;50.360;8.726;2024-01-27T20:34:09;13.53;;;9.17;;
27983;SDS011;15317;50.360;8.726;2024-01-27T20:39:13;17.50;;;10.93;;
27983;SDS011;15317;50.360;8.726;2024-01-27T20:44:17;13.97;;;10.53;;
27983;SDS011;15317;50.360;8.726;2024-01-27T20:49:21;16.70;;;10.13;;
27983;SDS011;15317;50.360;8.726;2024-01-27T20:54:25;15.87;;;9.67;;
27983;SDS011;15317;50.360;8.726;2024-01-27T20:59:29;12.70;;;8.43;;
27983;SDS011;15317;50.360;8.726;2024-01-27T21:04:32;13.03;;;7.57;;
27983;SDS011;15317;50.360;8.726;2024-01-27T21:09:36;15.53;;;8.80;;
27983;SDS011;15317;50.360;8.726;2024-01-27T21:14:43;14.37;;;7.63;;
27983;SDS011;15317;50.360;8.726;2024-01-27T21:19:46;14.50;;;6.67;;
27983;SDS011;15317;50.360;8.726;2024-01-27T21:24:52;10.13;;;6.70;;
27983;SDS011;15317;50.360;8.726;2024-01-27T21:29:57;10.43;;;5.60;;
27983;SDS011;15317;50.360;8.726;2024-01-27T21:35:01;12.40;;;6.13;;
27983;SDS011;15317;50.360;8.726;2024-01-27T21:40:05;9.17;;;6.60;;
27983;SDS011;15317;50.360;8.726;2024-01-27T21:45:10;12.17;;;6.90;;
27983;SDS011;15317;50.360;8.726;2024-01-27T21:50:14;12.37;;;7.70;;
27983;SDS011;15317;50.360;8.726;2024-01-27T21:55:17;15.40;;;7.10;;
27983;SDS011;15317;50.360;8.726;2024-01-27T22:00:21;10.90;;;6.30;;
27983;SDS011;15317;50.360;8.726;2024-01-27T22:05:25;11.40;;;5.93;;
27983;SDS011;15317;50.360;8.726;2024-01-27T22:10:28;11.37;;;6.63;;
27983;SDS011;15317;50.360;8.726;2024-01-27T22:15:33;11.60;;;6.77;;
27983;SDS011;15317;50.360;8.726;2024-01-27T22:20:40;8.50;;;5.60;;
27983;SDS011;15317;50.360;8.726;2024-01-27T22:25:43;14.77;;;6.40;;
27983;SDS011;15317;50.360;8.726;2024-01-27T22:30:48;10.63;;;6.60;;
27983;SDS011;15317;50.360;8.726;2024-01-27T22:35:51;11.70;;;6.37;;
27983;SDS011;15317;50.360;8.726;2024-01-27T22:40:54;11.83;;;6.30;;
27983;SDS011;15317;50.360;8.726;2024-01-27T22:45:59;11.23;;;5.83;;
27983;SDS011;15317;50.360;8.726;2024-01-27T22:51:02;12.03;;;6.50;;
27983;SDS011;15317;50.360;8.726;2024-01-27T22:56:06;11.87;;;6.23;;
27983;SDS011;15317;50.360;8.726;2024-01-27T23:01:10;10.10;;;6.40;;
27983;SDS011;15317;50.360;8.726;2024-01-27T23:06:14;11.60;;;5.93;;
27983;SDS011;15317;50.360;8.726;2024-01-27T23:11:18;14.43;;;5.90;;
27983;SDS011;15317;50.360;8.726;2024-01-27T23:16:23;12.43;;;6.57;;
27983;SDS011;15317;50.360;8.726;2024-01-27T23:21:26;13.20;;;6.73;;
27983;SDS011;15317;50.360;8.726;2024-01-27T23:26:29;13.00;;;6.60;;
27983;SDS011;15317;50.360;8.726;2024-01-27T23:31:33;11.93;;;6.00;;
27983;SDS011;15317;50.360;8.726;2024-01-27T23:36:37;11.30;;;6.77;;
27983;SDS011;15317;50.360;8.726;2024-01-27T23:41:42;9.03;;;6.03;;
27983;SDS011;15317;50.360;8.726;2024-01-27T23:46:47;12.53;;;6.27;;
27983;SDS011;15317;50.360;8.726;2024-01-27T23:51:50;8.97;;;5.60;;
27983;SDS011;15317;50.360;8.726;2024-01-27T23:56:55;9.67;;;5.90;;
